Palm Beach International Airport
KPBI : now visible

Airfield :











YOU CAN JOIN US ON...

 
LOGIN :

Register | Disclaimer

   EN    FR    IT 

 









Legend :    VFR   Marginal VFR   IFR   Intensive IFR   Very Intensive IFR
Visi :
Ceiling :
>= 8 km
>= 3000ft
5 to 8 km
1000 to 3000 ft
1500m to 5 km
500 to 1000 ft
800 to 1500m
200 to 500 ft
< 800m
< 200 ft
Symbols :   Thunderstorms  Fog  Heavy snow  Heavy precipitations  Wind > 20 kt






- Airport Elevation : 19 ft
- IATA code : PBI


KPBI - Palm Beach International

CURRENT METAR :
  • 031353Z 20007KT 10SM TS SCT026CB BKN220 29/26 A3003 RMK AO2 LTG DSNT SE TSB25 SLP169 OCNL LTGICCG NW TS NW MOV NE CB DSNT NE-SE NW T02890256

EXPIRED METARs :
  • 031327Z 20007KT 10SM TS SCT024CB BKN220 28/25 A3004 RMK AO2 LTG DSNT SE AND NW TSB25 OCNL LTGICCG NW TS NW MOV NE CB DSNT NE-SE NW T02830250
  • 031253Z 22005KT 10SM SCT024 BKN220 28/25 A3005 RMK AO2 LTG DSNT E SLP173 CB DSNT NE-SE T02780250
  • 031153Z 21004KT 10SM SCT027CB BKN220 27/25 A3003 RMK AO2 LTG DSNT NE AND E SLP167 CB NE-E MOV NE CB DSNT NE-SE 70098 T02720250 10272 20261 51016 $

TAF KPBI
Valid from the 03 at 12:00 until the 04 at 12:00 UTC


031120Z 0312/0412 VRB05KT P6SM VCTS SCT025CB BKN050
TEMPO 0315/0317 4SM TSRA SCT020CB BKN035
FM031700 17011KT P6SM VCTS SCT025CB BKN050
PROB30 0321/0323 4SM TSRA SCT020CB BKN035
FM040300 VRB05KT P6SM SCT035 BKN100
KZMA FIR / North America



MET'MAP, your aeronautical weather chart ! - Copyright ORBIFLY December 2007 - Disclaimer

ORBIFLY MET'MAP TEAM :

Programming & Development : Alexandra Zaïnal
Concept & original design : Baudouin d'Aumeries
Assistance for programming : Marc-Olivier Méhu
Technical & hardware support : Manuel Goepfert

Contact : metmap@orbifly.com




SOURCES & CREDITS :

   NOAA       Earth
Advisory